sensor_id;sensor_type;location;lat;lon;timestamp;P1;durP1;ratioP1;P2;durP2;ratioP2
9689;SDS011;4884;42.614;23.340;2022-10-16T00:00:43;11.33;;;8.93;;
9689;SDS011;4884;42.614;23.340;2022-10-16T00:03:09;10.80;;;8.77;;
9689;SDS011;4884;42.614;23.340;2022-10-16T00:05:41;12.50;;;8.67;;
9689;SDS011;4884;42.614;23.340;2022-10-16T00:08:09;11.20;;;8.77;;
9689;SDS011;4884;42.614;23.340;2022-10-16T00:10:35;10.57;;;8.40;;
9689;SDS011;4884;42.614;23.340;2022-10-16T00:13:01;12.03;;;9.60;;
9689;SDS011;4884;42.614;23.340;2022-10-16T00:15:27;13.37;;;9.23;;
9689;SDS011;4884;42.614;23.340;2022-10-16T00:17:52;10.27;;;8.90;;
9689;SDS011;4884;42.614;23.340;2022-10-16T00:20:17;10.30;;;7.73;;
9689;SDS011;4884;42.614;23.340;2022-10-16T00:22:43;11.37;;;8.23;;
9689;SDS011;4884;42.614;23.340;2022-10-16T00:25:08;10.53;;;8.30;;
9689;SDS011;4884;42.614;23.340;2022-10-16T00:27:34;8.90;;;7.87;;
9689;SDS011;4884;42.614;23.340;2022-10-16T00:29:59;7.60;;;6.67;;
9689;SDS011;4884;42.614;23.340;2022-10-16T00:32:25;9.67;;;7.43;;
9689;SDS011;4884;42.614;23.340;2022-10-16T00:34:50;10.97;;;8.53;;
9689;SDS011;4884;42.614;23.340;2022-10-16T00:37:16;8.87;;;7.97;;
9689;SDS011;4884;42.614;23.340;2022-10-16T00:39:41;12.43;;;8.40;;
9689;SDS011;4884;42.614;23.340;2022-10-16T00:42:08;11.07;;;9.20;;
9689;SDS011;4884;42.614;23.340;2022-10-16T00:44:42;9.00;;;8.17;;
9689;SDS011;4884;42.614;23.340;2022-10-16T00:47:19;9.80;;;8.37;;
9689;SDS011;4884;42.614;23.340;2022-10-16T00:49:47;10.40;;;7.77;;
9689;SDS011;4884;42.614;23.340;2022-10-16T00:52:12;8.70;;;7.80;;
9689;SDS011;4884;42.614;23.340;2022-10-16T00:54:38;11.83;;;8.77;;
9689;SDS011;4884;42.614;23.340;2022-10-16T00:57:04;8.30;;;7.50;;
9689;SDS011;4884;42.614;23.340;2022-10-16T00:59:35;12.17;;;8.77;;
9689;SDS011;4884;42.614;23.340;2022-10-16T01:02:04;12.23;;;9.50;;
9689;SDS011;4884;42.614;23.340;2022-10-16T01:04:35;14.33;;;9.73;;
9689;SDS011;4884;42.614;23.340;2022-10-16T01:12:57;10.37;;;8.30;;
9689;SDS011;4884;42.614;23.340;2022-10-16T01:15:30;12.00;;;7.80;;
9689;SDS011;4884;42.614;23.340;2022-10-16T01:25:51;6.97;;;6.23;;
9689;SDS011;4884;42.614;23.340;2022-10-16T01:28:37;8.60;;;6.47;;
9689;SDS011;4884;42.614;23.340;2022-10-16T01:31:06;8.83;;;7.37;;
9689;SDS011;4884;42.614;23.340;2022-10-16T01:33:55;11.50;;;6.67;;
9689;SDS011;4884;42.614;23.340;2022-10-16T01:36:25;7.10;;;6.40;;
9689;SDS011;4884;42.614;23.340;2022-10-16T01:38:54;8.13;;;5.90;;
9689;SDS011;4884;42.614;23.340;2022-10-16T01:41:24;7.27;;;5.60;;
9689;SDS011;4884;42.614;23.340;2022-10-16T01:43:53;6.40;;;5.67;;
9689;SDS011;4884;42.614;23.340;2022-10-16T01:46:26;8.10;;;6.00;;
9689;SDS011;4884;42.614;23.340;2022-10-16T01:48:51;6.07;;;5.43;;
9689;SDS011;4884;42.614;23.340;2022-10-16T01:51:17;10.23;;;5.73;;
9689;SDS011;4884;42.614;23.340;2022-10-16T01:53:45;6.23;;;5.63;;
9689;SDS011;4884;42.614;23.340;2022-10-16T01:56:13;11.27;;;6.17;;
9689;SDS011;4884;42.614;23.340;2022-10-16T01:58:41;7.87;;;6.07;;
9689;SDS011;4884;42.614;23.340;2022-10-16T02:01:12;6.90;;;5.90;;
9689;SDS011;4884;42.614;23.340;2022-10-16T02:03:40;7.57;;;6.70;;
9689;SDS011;4884;42.614;23.340;2022-10-16T02:06:07;7.43;;;6.27;;
9689;SDS011;4884;42.614;23.340;2022-10-16T02:08:32;6.17;;;5.57;;
9689;SDS011;4884;42.614;23.340;2022-10-16T02:10:59;7.30;;;6.53;;
9689;SDS011;4884;42.614;23.340;2022-10-16T02:13:27;9.83;;;5.83;;
9689;SDS011;4884;42.614;23.340;2022-10-16T02:15:56;10.90;;;6.10;;
9689;SDS011;4884;42.614;23.340;2022-10-16T02:18:22;7.03;;;6.33;;
9689;SDS011;4884;42.614;23.340;2022-10-16T02:23:58;7.20;;;6.50;;
9689;SDS011;4884;42.614;23.340;2022-10-16T02:26:30;10.07;;;6.60;;
9689;SDS011;4884;42.614;23.340;2022-10-16T02:29:00;7.97;;;7.17;;
9689;SDS011;4884;42.614;23.340;2022-10-16T02:31:31;8.27;;;7.13;;
9689;SDS011;4884;42.614;23.340;2022-10-16T02:33:59;9.83;;;7.50;;
9689;SDS011;4884;42.614;23.340;2022-10-16T02:36:25;8.03;;;7.23;;
9689;SDS011;4884;42.614;23.340;2022-10-16T02:38:51;8.30;;;6.93;;
9689;SDS011;4884;42.614;23.340;2022-10-16T02:41:18;9.53;;;7.03;;
9689;SDS011;4884;42.614;23.340;2022-10-16T02:43:43;7.37;;;6.67;;
9689;SDS011;4884;42.614;23.340;2022-10-16T02:46:09;7.97;;;7.03;;
9689;SDS011;4884;42.614;23.340;2022-10-16T02:48:34;8.13;;;7.27;;
9689;SDS011;4884;42.614;23.340;2022-10-16T02:51:00;12.33;;;8.67;;
9689;SDS011;4884;42.614;23.340;2022-10-16T02:53:26;8.13;;;6.80;;
9689;SDS011;4884;42.614;23.340;2022-10-16T02:55:51;9.10;;;7.37;;
9689;SDS011;4884;42.614;23.340;2022-10-16T02:58:16;8.50;;;7.17;;
9689;SDS011;4884;42.614;23.340;2022-10-16T03:00:42;7.83;;;7.07;;
9689;SDS011;4884;42.614;23.340;2022-10-16T03:03:07;9.13;;;7.83;;
9689;SDS011;4884;42.614;23.340;2022-10-16T03:05:33;8.43;;;7.47;;
9689;SDS011;4884;42.614;23.340;2022-10-16T03:07:58;9.50;;;8.37;;
9689;SDS011;4884;42.614;23.340;2022-10-16T03:10:25;10.40;;;8.30;;
9689;SDS011;4884;42.614;23.340;2022-10-16T03:12:51;9.03;;;8.07;;
9689;SDS011;4884;42.614;23.340;2022-10-16T03:15:16;10.00;;;9.00;;
9689;SDS011;4884;42.614;23.340;2022-10-16T03:17:42;9.83;;;8.80;;
9689;SDS011;4884;42.614;23.340;2022-10-16T03:20:08;10.30;;;8.80;;
9689;SDS011;4884;42.614;23.340;2022-10-16T03:22:33;13.40;;;8.93;;
9689;SDS011;4884;42.614;23.340;2022-10-16T03:24:59;23.93;;;15.53;;
9689;SDS011;4884;42.614;23.340;2022-10-16T03:27:24;17.27;;;11.57;;
9689;SDS011;4884;42.614;23.340;2022-10-16T03:29:50;20.63;;;13.83;;
9689;SDS011;4884;42.614;23.340;2022-10-16T03:32:15;24.50;;;15.27;;
9689;SDS011;4884;42.614;23.340;2022-10-16T03:34:40;25.93;;;16.10;;
9689;SDS011;4884;42.614;23.340;2022-10-16T03:37:06;21.73;;;14.27;;
9689;SDS011;4884;42.614;23.340;2022-10-16T03:39:31;19.17;;;13.00;;
9689;SDS011;4884;42.614;23.340;2022-10-16T03:41:57;15.80;;;12.00;;
9689;SDS011;4884;42.614;23.340;2022-10-16T03:44:22;15.93;;;12.33;;
9689;SDS011;4884;42.614;23.340;2022-10-16T03:46:47;15.20;;;10.83;;
9689;SDS011;4884;42.614;23.340;2022-10-16T03:49:13;16.40;;;12.27;;
9689;SDS011;4884;42.614;23.340;2022-10-16T03:51:38;16.17;;;12.07;;
9689;SDS011;4884;42.614;23.340;2022-10-16T03:54:04;14.87;;;12.47;;
9689;SDS011;4884;42.614;23.340;2022-10-16T03:56:29;16.87;;;13.03;;
9689;SDS011;4884;42.614;23.340;2022-10-16T03:58:54;15.33;;;11.43;;
9689;SDS011;4884;42.614;23.340;2022-10-16T04:01:20;15.87;;;12.13;;
9689;SDS011;4884;42.614;23.340;2022-10-16T04:03:45;14.83;;;11.73;;
9689;SDS011;4884;42.614;23.340;2022-10-16T04:06:10;11.67;;;10.47;;
9689;SDS011;4884;42.614;23.340;2022-10-16T04:08:36;11.63;;;9.90;;
9689;SDS011;4884;42.614;23.340;2022-10-16T04:11:02;14.73;;;10.87;;
9689;SDS011;4884;42.614;23.340;2022-10-16T04:13:28;12.60;;;10.77;;
9689;SDS011;4884;42.614;23.340;2022-10-16T04:15:53;15.73;;;11.50;;
9689;SDS011;4884;42.614;23.340;2022-10-16T04:18:18;15.00;;;11.77;;
9689;SDS011;4884;42.614;23.340;2022-10-16T04:20:44;13.43;;;10.60;;
9689;SDS011;4884;42.614;23.340;2022-10-16T04:23:09;13.17;;;10.47;;
9689;SDS011;4884;42.614;23.340;2022-10-16T04:25:35;12.60;;;11.07;;
9689;SDS011;4884;42.614;23.340;2022-10-16T04:28:00;11.67;;;10.30;;
9689;SDS011;4884;42.614;23.340;2022-10-16T04:30:26;12.07;;;10.57;;
9689;SDS011;4884;42.614;23.340;2022-10-16T04:32:51;14.03;;;11.20;;
9689;SDS011;4884;42.614;23.340;2022-10-16T04:35:17;10.80;;;9.70;;
9689;SDS011;4884;42.614;23.340;2022-10-16T04:37:43;12.10;;;10.80;;
9689;SDS011;4884;42.614;23.340;2022-10-16T04:40:09;11.73;;;9.20;;
9689;SDS011;4884;42.614;23.340;2022-10-16T04:42:34;11.27;;;10.10;;
9689;SDS011;4884;42.614;23.340;2022-10-16T04:45:00;11.70;;;9.63;;
9689;SDS011;4884;42.614;23.340;2022-10-16T04:47:25;11.90;;;10.53;;
9689;SDS011;4884;42.614;23.340;2022-10-16T04:49:50;12.90;;;10.73;;
9689;SDS011;4884;42.614;23.340;2022-10-16T04:52:16;12.13;;;10.90;;
9689;SDS011;4884;42.614;23.340;2022-10-16T04:54:42;14.30;;;12.17;;
9689;SDS011;4884;42.614;23.340;2022-10-16T04:57:09;15.40;;;12.37;;
9689;SDS011;4884;42.614;23.340;2022-10-16T04:59:35;13.00;;;10.97;;
9689;SDS011;4884;42.614;23.340;2022-10-16T05:02:00;18.13;;;11.80;;
9689;SDS011;4884;42.614;23.340;2022-10-16T05:04:26;14.90;;;10.40;;
9689;SDS011;4884;42.614;23.340;2022-10-16T05:06:51;15.97;;;11.60;;
9689;SDS011;4884;42.614;23.340;2022-10-16T05:09:16;13.37;;;11.03;;
9689;SDS011;4884;42.614;23.340;2022-10-16T05:11:42;13.00;;;11.07;;
9689;SDS011;4884;42.614;23.340;2022-10-16T05:14:07;16.30;;;13.20;;
9689;SDS011;4884;42.614;23.340;2022-10-16T05:16:33;15.33;;;13.30;;
9689;SDS011;4884;42.614;23.340;2022-10-16T05:18:58;14.70;;;13.10;;
9689;SDS011;4884;42.614;23.340;2022-10-16T05:21:24;11.97;;;10.33;;
9689;SDS011;4884;42.614;23.340;2022-10-16T05:23:49;14.30;;;10.30;;
9689;SDS011;4884;42.614;23.340;2022-10-16T05:26:14;18.00;;;13.80;;
9689;SDS011;4884;42.614;23.340;2022-10-16T05:28:40;21.13;;;14.80;;
9689;SDS011;4884;42.614;23.340;2022-10-16T05:31:05;22.67;;;17.57;;
9689;SDS011;4884;42.614;23.340;2022-10-16T05:33:31;22.87;;;18.50;;
9689;SDS011;4884;42.614;23.340;2022-10-16T05:36:00;25.00;;;17.40;;
9689;SDS011;4884;42.614;23.340;2022-10-16T05:38:26;20.77;;;15.90;;
9689;SDS011;4884;42.614;23.340;2022-10-16T05:40:51;24.23;;;15.90;;
9689;SDS011;4884;42.614;23.340;2022-10-16T05:43:20;19.80;;;14.77;;
9689;SDS011;4884;42.614;23.340;2022-10-16T05:45:53;19.43;;;13.63;;
9689;SDS011;4884;42.614;23.340;2022-10-16T05:48:19;13.03;;;11.57;;
9689;SDS011;4884;42.614;23.340;2022-10-16T05:50:44;15.17;;;11.70;;
9689;SDS011;4884;42.614;23.340;2022-10-16T05:53:10;12.30;;;10.33;;
9689;SDS011;4884;42.614;23.340;2022-10-16T05:55:35;14.07;;;10.93;;
9689;SDS011;4884;42.614;23.340;2022-10-16T05:58:01;11.90;;;10.20;;
9689;SDS011;4884;42.614;23.340;2022-10-16T06:00:26;12.83;;;10.87;;
9689;SDS011;4884;42.614;23.340;2022-10-16T06:02:51;14.20;;;11.13;;
9689;SDS011;4884;42.614;23.340;2022-10-16T06:05:17;15.87;;;12.27;;
9689;SDS011;4884;42.614;23.340;2022-10-16T06:07:42;13.97;;;12.40;;
9689;SDS011;4884;42.614;23.340;2022-10-16T06:10:07;14.43;;;11.70;;
9689;SDS011;4884;42.614;23.340;2022-10-16T06:12:33;17.23;;;11.57;;
9689;SDS011;4884;42.614;23.340;2022-10-16T06:14:59;19.20;;;13.27;;
9689;SDS011;4884;42.614;23.340;2022-10-16T06:17:24;17.27;;;12.93;;
9689;SDS011;4884;42.614;23.340;2022-10-16T06:19:50;17.57;;;14.03;;
9689;SDS011;4884;42.614;23.340;2022-10-16T06:22:15;16.77;;;12.93;;
9689;SDS011;4884;42.614;23.340;2022-10-16T06:24:41;15.70;;;12.57;;
9689;SDS011;4884;42.614;23.340;2022-10-16T06:27:06;16.73;;;12.90;;
9689;SDS011;4884;42.614;23.340;2022-10-16T06:29:32;15.23;;;12.60;;
9689;SDS011;4884;42.614;23.340;2022-10-16T06:31:57;17.03;;;12.90;;
9689;SDS011;4884;42.614;23.340;2022-10-16T06:34:22;15.43;;;13.07;;
9689;SDS011;4884;42.614;23.340;2022-10-16T06:36:48;12.93;;;10.97;;
9689;SDS011;4884;42.614;23.340;2022-10-16T06:39:13;12.23;;;10.93;;
9689;SDS011;4884;42.614;23.340;2022-10-16T06:41:39;15.30;;;10.77;;
9689;SDS011;4884;42.614;23.340;2022-10-16T06:44:05;12.07;;;10.57;;
9689;SDS011;4884;42.614;23.340;2022-10-16T06:46:31;14.27;;;11.10;;
9689;SDS011;4884;42.614;23.340;2022-10-16T06:48:56;12.67;;;11.40;;
9689;SDS011;4884;42.614;23.340;2022-10-16T06:51:23;15.27;;;11.47;;
9689;SDS011;4884;42.614;23.340;2022-10-16T06:53:49;11.67;;;10.47;;
9689;SDS011;4884;42.614;23.340;2022-10-16T06:56:17;13.43;;;11.43;;
9689;SDS011;4884;42.614;23.340;2022-10-16T06:58:48;14.10;;;11.63;;
9689;SDS011;4884;42.614;23.340;2022-10-16T07:01:14;22.17;;;12.27;;
9689;SDS011;4884;42.614;23.340;2022-10-16T07:03:41;12.10;;;10.93;;
9689;SDS011;4884;42.614;23.340;2022-10-16T07:06:08;11.47;;;10.37;;
9689;SDS011;4884;42.614;23.340;2022-10-16T07:08:35;13.70;;;10.00;;
9689;SDS011;4884;42.614;23.340;2022-10-16T07:11:02;9.73;;;8.80;;
9689;SDS011;4884;42.614;23.340;2022-10-16T07:13:30;9.30;;;7.73;;
9689;SDS011;4884;42.614;23.340;2022-10-16T07:15:57;7.80;;;7.10;;
9689;SDS011;4884;42.614;23.340;2022-10-16T07:18:23;7.23;;;6.60;;
9689;SDS011;4884;42.614;23.340;2022-10-16T07:20:51;7.43;;;6.73;;
9689;SDS011;4884;42.614;23.340;2022-10-16T07:23:17;7.47;;;6.87;;
9689;SDS011;4884;42.614;23.340;2022-10-16T07:25:42;6.30;;;5.77;;
9689;SDS011;4884;42.614;23.340;2022-10-16T07:28:08;8.00;;;6.83;;
9689;SDS011;4884;42.614;23.340;2022-10-16T07:30:34;7.13;;;6.43;;
9689;SDS011;4884;42.614;23.340;2022-10-16T07:33:01;6.97;;;6.20;;
9689;SDS011;4884;42.614;23.340;2022-10-16T07:35:26;6.87;;;6.27;;
9689;SDS011;4884;42.614;23.340;2022-10-16T07:37:52;7.13;;;6.43;;
9689;SDS011;4884;42.614;23.340;2022-10-16T07:40:17;5.90;;;5.40;;
9689;SDS011;4884;42.614;23.340;2022-10-16T07:42:43;6.40;;;5.80;;
9689;SDS011;4884;42.614;23.340;2022-10-16T07:45:08;9.47;;;6.43;;
9689;SDS011;4884;42.614;23.340;2022-10-16T07:47:34;6.43;;;5.83;;
9689;SDS011;4884;42.614;23.340;2022-10-16T07:49:59;6.37;;;5.37;;
9689;SDS011;4884;42.614;23.340;2022-10-16T07:52:24;6.27;;;5.67;;
9689;SDS011;4884;42.614;23.340;2022-10-16T07:54:50;7.90;;;5.73;;
9689;SDS011;4884;42.614;23.340;2022-10-16T07:57:15;6.40;;;5.70;;
9689;SDS011;4884;42.614;23.340;2022-10-16T07:59:45;9.87;;;5.93;;
9689;SDS011;4884;42.614;23.340;2022-10-16T08:02:11;7.00;;;6.37;;
9689;SDS011;4884;42.614;23.340;2022-10-16T08:04:36;5.87;;;5.33;;
9689;SDS011;4884;42.614;23.340;2022-10-16T08:07:02;6.20;;;5.60;;
9689;SDS011;4884;42.614;23.340;2022-10-16T08:09:27;7.57;;;6.87;;
9689;SDS011;4884;42.614;23.340;2022-10-16T08:11:53;6.20;;;5.70;;
9689;SDS011;4884;42.614;23.340;2022-10-16T08:14:18;8.03;;;5.67;;
9689;SDS011;4884;42.614;23.340;2022-10-16T08:16:43;5.47;;;4.93;;
9689;SDS011;4884;42.614;23.340;2022-10-16T08:19:09;6.17;;;5.67;;
9689;SDS011;4884;42.614;23.340;2022-10-16T08:21:34;6.63;;;5.63;;
9689;SDS011;4884;42.614;23.340;2022-10-16T08:23:59;10.10;;;6.70;;
9689;SDS011;4884;42.614;23.340;2022-10-16T08:26:25;6.73;;;6.07;;
9689;SDS011;4884;42.614;23.340;2022-10-16T08:28:51;8.83;;;7.20;;
9689;SDS011;4884;42.614;23.340;2022-10-16T08:31:17;7.10;;;6.40;;
9689;SDS011;4884;42.614;23.340;2022-10-16T08:33:44;7.60;;;6.77;;
9689;SDS011;4884;42.614;23.340;2022-10-16T08:36:11;8.87;;;5.60;;
9689;SDS011;4884;42.614;23.340;2022-10-16T08:38:37;7.60;;;5.60;;
9689;SDS011;4884;42.614;23.340;2022-10-16T08:43:50;9.03;;;5.03;;
9689;SDS011;4884;42.614;23.340;2022-10-16T08:48:58;6.13;;;5.43;;
9689;SDS011;4884;42.614;23.340;2022-10-16T08:51:26;5.67;;;4.60;;
9689;SDS011;4884;42.614;23.340;2022-10-16T08:53:57;7.27;;;4.60;;
9689;SDS011;4884;42.614;23.340;2022-10-16T08:56:24;5.10;;;4.63;;
9689;SDS011;4884;42.614;23.340;2022-10-16T08:58:50;8.80;;;5.73;;
9689;SDS011;4884;42.614;23.340;2022-10-16T09:01:17;5.77;;;4.60;;
9689;SDS011;4884;42.614;23.340;2022-10-16T09:14:35;4.47;;;4.07;;
9689;SDS011;4884;42.614;23.340;2022-10-16T09:17:12;6.67;;;5.33;;
9689;SDS011;4884;42.614;23.340;2022-10-16T09:19:51;7.83;;;4.33;;
9689;SDS011;4884;42.614;23.340;2022-10-16T09:22:20;4.40;;;4.00;;
9689;SDS011;4884;42.614;23.340;2022-10-16T09:24:47;4.80;;;4.40;;
9689;SDS011;4884;42.614;23.340;2022-10-16T09:27:13;4.97;;;4.43;;
9689;SDS011;4884;42.614;23.340;2022-10-16T09:29:39;6.03;;;5.07;;
9689;SDS011;4884;42.614;23.340;2022-10-16T09:32:15;9.00;;;5.40;;
9689;SDS011;4884;42.614;23.340;2022-10-16T09:34:45;5.93;;;5.10;;
9689;SDS011;4884;42.614;23.340;2022-10-16T09:37:19;4.93;;;4.53;;
9689;SDS011;4884;42.614;23.340;2022-10-16T09:39:50;6.20;;;4.23;;
9689;SDS011;4884;42.614;23.340;2022-10-16T09:42:17;5.73;;;4.83;;
9689;SDS011;4884;42.614;23.340;2022-10-16T09:44:46;8.90;;;4.67;;
9689;SDS011;4884;42.614;23.340;2022-10-16T09:49:55;6.00;;;5.35;;
9689;SDS011;4884;42.614;23.340;2022-10-16T09:52:27;4.20;;;3.57;;
9689;SDS011;4884;42.614;23.340;2022-10-16T09:54:53;5.15;;;4.35;;
9689;SDS011;4884;42.614;23.340;2022-10-16T09:57:21;3.95;;;3.50;;
9689;SDS011;4884;42.614;23.340;2022-10-16T09:59:48;4.68;;;4.28;;
9689;SDS011;4884;42.614;23.340;2022-10-16T10:02:15;5.45;;;3.95;;
9689;SDS011;4884;42.614;23.340;2022-10-16T10:04:52;6.90;;;4.85;;
9689;SDS011;4884;42.614;23.340;2022-10-16T10:07:23;5.95;;;4.10;;
9689;SDS011;4884;42.614;23.340;2022-10-16T10:09:51;5.95;;;4.90;;
9689;SDS011;4884;42.614;23.340;2022-10-16T10:12:17;7.70;;;5.38;;
9689;SDS011;4884;42.614;23.340;2022-10-16T10:14:51;6.95;;;4.70;;
9689;SDS011;4884;42.614;23.340;2022-10-16T10:17:19;4.88;;;4.47;;
9689;SDS011;4884;42.614;23.340;2022-10-16T10:19:54;8.02;;;4.47;;
9689;SDS011;4884;42.614;23.340;2022-10-16T10:22:39;5.13;;;4.05;;
9689;SDS011;4884;42.614;23.340;2022-10-16T10:30:25;4.78;;;4.38;;
9689;SDS011;4884;42.614;23.340;2022-10-16T10:49:39;4.07;;;3.55;;
9689;SDS011;4884;42.614;23.340;2022-10-16T11:01:10;4.03;;;3.63;;
9689;SDS011;4884;42.614;23.340;2022-10-16T11:06:24;6.78;;;4.55;;
9689;SDS011;4884;42.614;23.340;2022-10-16T11:08:53;4.67;;;3.73;;
9689;SDS011;4884;42.614;23.340;2022-10-16T11:11:38;5.13;;;4.30;;
9689;SDS011;4884;42.614;23.340;2022-10-16T11:17:17;5.80;;;4.10;;
9689;SDS011;4884;42.614;23.340;2022-10-16T11:19:53;3.60;;;3.30;;
9689;SDS011;4884;42.614;23.340;2022-10-16T11:22:36;4.78;;;4.18;;
9689;SDS011;4884;42.614;23.340;2022-10-16T11:28:03;3.85;;;3.55;;
9689;SDS011;4884;42.614;23.340;2022-10-16T11:30:39;7.13;;;4.03;;
9689;SDS011;4884;42.614;23.340;2022-10-16T11:38:23;4.45;;;3.70;;
9689;SDS011;4884;42.614;23.340;2022-10-16T11:40:54;3.90;;;3.50;;
9689;SDS011;4884;42.614;23.340;2022-10-16T11:43:29;3.78;;;3.47;;
9689;SDS011;4884;42.614;23.340;2022-10-16T11:45:58;5.55;;;3.72;;
9689;SDS011;4884;42.614;23.340;2022-10-16T11:48:32;3.80;;;3.45;;
9689;SDS011;4884;42.614;23.340;2022-10-16T11:51:11;4.50;;;3.28;;
9689;SDS011;4884;42.614;23.340;2022-10-16T11:53:44;5.15;;;3.20;;
9689;SDS011;4884;42.614;23.340;2022-10-16T11:56:27;5.25;;;3.03;;
9689;SDS011;4884;42.614;23.340;2022-10-16T12:09:20;4.68;;;2.22;;
9689;SDS011;4884;42.614;23.340;2022-10-16T12:11:48;3.00;;;2.67;;
9689;SDS011;4884;42.614;23.340;2022-10-16T12:16:52;2.53;;;2.33;;
9689;SDS011;4884;42.614;23.340;2022-10-16T12:19:43;5.18;;;3.10;;
9689;SDS011;4884;42.614;23.340;2022-10-16T12:22:15;3.08;;;2.45;;
9689;SDS011;4884;42.614;23.340;2022-10-16T12:24:45;2.47;;;2.28;;
9689;SDS011;4884;42.614;23.340;2022-10-16T12:29:59;2.58;;;2.38;;
9689;SDS011;4884;42.614;23.340;2022-10-16T12:34:59;2.55;;;2.35;;
9689;SDS011;4884;42.614;23.340;2022-10-16T12:39:57;3.25;;;2.67;;
9689;SDS011;4884;42.614;23.340;2022-10-16T12:44:53;3.42;;;3.13;;
9689;SDS011;4884;42.614;23.340;2022-10-16T12:47:23;3.30;;;2.22;;
9689;SDS011;4884;42.614;23.340;2022-10-16T12:49:55;3.30;;;3.00;;
9689;SDS011;4884;42.614;23.340;2022-10-16T12:52:25;2.85;;;2.55;;
9689;SDS011;4884;42.614;23.340;2022-10-16T12:54:55;5.95;;;2.97;;
9689;SDS011;4884;42.614;23.340;2022-10-16T12:58:11;2.85;;;2.65;;
9689;SDS011;4884;42.614;23.340;2022-10-16T13:08:39;2.97;;;2.72;;
9689;SDS011;4884;42.614;23.340;2022-10-16T13:13:59;3.47;;;3.03;;
9689;SDS011;4884;42.614;23.340;2022-10-16T13:19:19;6.72;;;2.70;;
9689;SDS011;4884;42.614;23.340;2022-10-16T13:21:49;5.63;;;3.30;;
9689;SDS011;4884;42.614;23.340;2022-10-16T13:26:57;3.60;;;3.30;;
9689;SDS011;4884;42.614;23.340;2022-10-16T13:29:37;3.17;;;2.60;;
9689;SDS011;4884;42.614;23.340;2022-10-16T13:32:07;4.43;;;3.10;;
9689;SDS011;4884;42.614;23.340;2022-10-16T13:34:41;3.80;;;2.90;;
9689;SDS011;4884;42.614;23.340;2022-10-16T13:37:15;3.97;;;2.87;;
9689;SDS011;4884;42.614;23.340;2022-10-16T13:39:42;3.20;;;2.87;;
9689;SDS011;4884;42.614;23.340;2022-10-16T13:42:22;4.27;;;3.30;;
9689;SDS011;4884;42.614;23.340;2022-10-16T13:44:49;6.50;;;3.60;;
9689;SDS011;4884;42.614;23.340;2022-10-16T13:47:17;3.90;;;2.93;;
9689;SDS011;4884;42.614;23.340;2022-10-16T13:49:44;4.53;;;2.80;;
9689;SDS011;4884;42.614;23.340;2022-10-16T13:52:20;3.53;;;3.23;;
9689;SDS011;4884;42.614;23.340;2022-10-16T13:54:46;5.80;;;2.70;;
9689;SDS011;4884;42.614;23.340;2022-10-16T13:57:14;4.77;;;3.10;;
9689;SDS011;4884;42.614;23.340;2022-10-16T13:59:40;3.80;;;3.50;;
9689;SDS011;4884;42.614;23.340;2022-10-16T14:04:50;6.17;;;5.67;;
9689;SDS011;4884;42.614;23.340;2022-10-16T14:07:26;5.37;;;3.60;;
9689;SDS011;4884;42.614;23.340;2022-10-16T14:09:53;8.83;;;6.97;;
9689;SDS011;4884;42.614;23.340;2022-10-16T14:12:20;12.80;;;11.47;;
9689;SDS011;4884;42.614;23.340;2022-10-16T14:14:47;8.30;;;6.30;;
9689;SDS011;4884;42.614;23.340;2022-10-16T14:19:59;4.90;;;4.50;;
9689;SDS011;4884;42.614;23.340;2022-10-16T14:24:58;7.07;;;3.63;;
9689;SDS011;4884;42.614;23.340;2022-10-16T14:27:28;5.20;;;3.80;;
9689;SDS011;4884;42.614;23.340;2022-10-16T14:32:52;5.43;;;4.90;;
9689;SDS011;4884;42.614;23.340;2022-10-16T14:35:27;12.67;;;10.10;;
9689;SDS011;4884;42.614;23.340;2022-10-16T14:37:56;11.63;;;8.53;;
9689;SDS011;4884;42.614;23.340;2022-10-16T14:40:24;9.47;;;8.47;;
9689;SDS011;4884;42.614;23.340;2022-10-16T14:42:51;6.27;;;4.80;;
9689;SDS011;4884;42.614;23.340;2022-10-16T14:45:26;7.43;;;6.03;;
9689;SDS011;4884;42.614;23.340;2022-10-16T14:47:54;10.53;;;7.73;;
9689;SDS011;4884;42.614;23.340;2022-10-16T14:50:21;8.83;;;7.93;;
9689;SDS011;4884;42.614;23.340;2022-10-16T14:52:47;11.63;;;7.57;;
9689;SDS011;4884;42.614;23.340;2022-10-16T14:55:13;13.57;;;9.97;;
9689;SDS011;4884;42.614;23.340;2022-10-16T14:57:38;12.83;;;9.93;;
9689;SDS011;4884;42.614;23.340;2022-10-16T15:02:44;12.70;;;8.53;;
9689;SDS011;4884;42.614;23.340;2022-10-16T15:05:17;8.27;;;7.13;;
9689;SDS011;4884;42.614;23.340;2022-10-16T15:07:47;11.23;;;8.07;;
9689;SDS011;4884;42.614;23.340;2022-10-16T15:10:14;7.73;;;6.97;;
9689;SDS011;4884;42.614;23.340;2022-10-16T15:12:41;13.90;;;7.70;;
9689;SDS011;4884;42.614;23.340;2022-10-16T15:18:00;14.33;;;11.77;;
9689;SDS011;4884;42.614;23.340;2022-10-16T15:20:28;12.33;;;7.10;;
9689;SDS011;4884;42.614;23.340;2022-10-16T15:22:55;13.73;;;6.23;;
9689;SDS011;4884;42.614;23.340;2022-10-16T15:25:29;14.47;;;6.87;;
9689;SDS011;4884;42.614;23.340;2022-10-16T15:28:01;17.13;;;10.77;;
9689;SDS011;4884;42.614;23.340;2022-10-16T15:30:27;9.93;;;7.03;;
9689;SDS011;4884;42.614;23.340;2022-10-16T15:32:53;9.53;;;6.30;;
9689;SDS011;4884;42.614;23.340;2022-10-16T15:35:19;9.40;;;6.47;;
9689;SDS011;4884;42.614;23.340;2022-10-16T15:37:45;9.20;;;8.30;;
9689;SDS011;4884;42.614;23.340;2022-10-16T15:40:11;11.73;;;8.80;;
9689;SDS011;4884;42.614;23.340;2022-10-16T15:42:37;16.43;;;10.47;;
9689;SDS011;4884;42.614;23.340;2022-10-16T15:45:03;13.50;;;9.80;;
9689;SDS011;4884;42.614;23.340;2022-10-16T15:47:29;9.87;;;7.93;;
9689;SDS011;4884;42.614;23.340;2022-10-16T15:49:54;6.57;;;5.97;;
9689;SDS011;4884;42.614;23.340;2022-10-16T15:52:20;11.80;;;8.17;;
9689;SDS011;4884;42.614;23.340;2022-10-16T15:54:45;10.73;;;8.23;;
9689;SDS011;4884;42.614;23.340;2022-10-16T15:57:10;11.97;;;7.07;;
9689;SDS011;4884;42.614;23.340;2022-10-16T15:59:36;6.73;;;6.13;;
9689;SDS011;4884;42.614;23.340;2022-10-16T16:02:01;8.83;;;6.87;;
9689;SDS011;4884;42.614;23.340;2022-10-16T16:04:29;10.07;;;6.50;;
9689;SDS011;4884;42.614;23.340;2022-10-16T16:06:55;9.17;;;7.27;;
9689;SDS011;4884;42.614;23.340;2022-10-16T16:09:21;8.80;;;6.00;;
9689;SDS011;4884;42.614;23.340;2022-10-16T16:11:46;8.43;;;5.23;;
9689;SDS011;4884;42.614;23.340;2022-10-16T16:14:12;5.73;;;4.73;;
9689;SDS011;4884;42.614;23.340;2022-10-16T16:16:38;13.13;;;9.90;;
9689;SDS011;4884;42.614;23.340;2022-10-16T16:19:04;15.60;;;11.70;;
9689;SDS011;4884;42.614;23.340;2022-10-16T16:21:31;19.40;;;12.93;;
9689;SDS011;4884;42.614;23.340;2022-10-16T16:23:57;19.57;;;13.23;;
9689;SDS011;4884;42.614;23.340;2022-10-16T16:26:26;10.10;;;9.10;;
9689;SDS011;4884;42.614;23.340;2022-10-16T16:28:54;11.93;;;8.47;;
9689;SDS011;4884;42.614;23.340;2022-10-16T16:31:23;14.87;;;12.33;;
9689;SDS011;4884;42.614;23.340;2022-10-16T16:33:50;10.40;;;8.97;;
9689;SDS011;4884;42.614;23.340;2022-10-16T16:36:16;8.33;;;7.47;;
9689;SDS011;4884;42.614;23.340;2022-10-16T16:38:43;10.43;;;7.40;;
9689;SDS011;4884;42.614;23.340;2022-10-16T16:43:37;13.23;;;8.90;;
9689;SDS011;4884;42.614;23.340;2022-10-16T16:46:02;11.40;;;8.87;;
9689;SDS011;4884;42.614;23.340;2022-10-16T16:48:28;12.87;;;8.80;;
9689;SDS011;4884;42.614;23.340;2022-10-16T16:50:54;10.97;;;9.47;;
9689;SDS011;4884;42.614;23.340;2022-10-16T16:53:19;10.07;;;8.53;;
9689;SDS011;4884;42.614;23.340;2022-10-16T16:55:45;12.13;;;9.57;;
9689;SDS011;4884;42.614;23.340;2022-10-16T16:58:10;12.50;;;9.50;;
9689;SDS011;4884;42.614;23.340;2022-10-16T17:00:36;9.93;;;8.00;;
9689;SDS011;4884;42.614;23.340;2022-10-16T17:03:01;12.93;;;9.07;;
9689;SDS011;4884;42.614;23.340;2022-10-16T17:05:27;10.63;;;8.03;;
9689;SDS011;4884;42.614;23.340;2022-10-16T17:07:52;15.97;;;7.20;;
9689;SDS011;4884;42.614;23.340;2022-10-16T17:10:17;10.00;;;8.87;;
9689;SDS011;4884;42.614;23.340;2022-10-16T17:12:43;7.47;;;5.70;;